sensor_id;sensor_type;location;lat;lon;timestamp;P1;durP1;ratioP1;P2;durP2;ratioP2
58214;SDS011;44011;52.218;1.480;2022-11-04T00:00:03;8.50;;;5.00;;
58214;SDS011;44011;52.218;1.480;2022-11-04T00:03:29;13.55;;;6.55;;
58214;SDS011;44011;52.218;1.480;2022-11-04T00:06:53;12.77;;;5.45;;
58214;SDS011;44011;52.218;1.480;2022-11-04T00:10:36;6.78;;;4.85;;
58214;SDS011;44011;52.218;1.480;2022-11-04T00:14:18;9.13;;;5.38;;
58214;SDS011;44011;52.218;1.480;2022-11-04T00:18:01;8.75;;;5.00;;
58214;SDS011;44011;52.218;1.480;2022-11-04T00:21:26;8.60;;;5.78;;
58214;SDS011;44011;52.218;1.480;2022-11-04T00:25:09;7.53;;;4.93;;
58214;SDS011;44011;52.218;1.480;2022-11-04T00:28:52;8.07;;;4.47;;
58214;SDS011;44011;52.218;1.480;2022-11-04T00:32:17;7.60;;;4.35;;
58214;SDS011;44011;52.218;1.480;2022-11-04T00:35:55;6.57;;;4.63;;
58214;SDS011;44011;52.218;1.480;2022-11-04T00:39:19;7.68;;;4.40;;
58214;SDS011;44011;52.218;1.480;2022-11-04T00:42:44;8.48;;;5.13;;
58214;SDS011;44011;52.218;1.480;2022-11-04T00:46:08;6.82;;;4.07;;
58214;SDS011;44011;52.218;1.480;2022-11-04T00:49:31;7.00;;;4.82;;
58214;SDS011;44011;52.218;1.480;2022-11-04T00:52:59;7.10;;;4.57;;
58214;SDS011;44011;52.218;1.480;2022-11-04T00:56:23;8.95;;;5.10;;
58214;SDS011;44011;52.218;1.480;2022-11-04T00:59:47;8.25;;;4.35;;
58214;SDS011;44011;52.218;1.480;2022-11-04T01:03:11;5.78;;;3.78;;
58214;SDS011;44011;52.218;1.480;2022-11-04T01:06:35;5.35;;;3.67;;
58214;SDS011;44011;52.218;1.480;2022-11-04T01:09:59;9.18;;;3.88;;
58214;SDS011;44011;52.218;1.480;2022-11-04T01:13:30;4.60;;;3.67;;
58214;SDS011;44011;52.218;1.480;2022-11-04T01:16:54;8.18;;;3.35;;
58214;SDS011;44011;52.218;1.480;2022-11-04T01:20:18;11.90;;;3.70;;
58214;SDS011;44011;52.218;1.480;2022-11-04T01:23:42;4.88;;;2.80;;
58214;SDS011;44011;52.218;1.480;2022-11-04T01:27:06;4.03;;;2.90;;
58214;SDS011;44011;52.218;1.480;2022-11-04T01:30:30;4.55;;;3.55;;
58214;SDS011;44011;52.218;1.480;2022-11-04T01:33:55;5.05;;;3.42;;
58214;SDS011;44011;52.218;1.480;2022-11-04T01:37:19;3.88;;;2.92;;
58214;SDS011;44011;52.218;1.480;2022-11-04T01:40:43;4.35;;;2.80;;
58214;SDS011;44011;52.218;1.480;2022-11-04T01:47:56;4.45;;;3.00;;
58214;SDS011;44011;52.218;1.480;2022-11-04T01:51:31;3.78;;;2.75;;
58214;SDS011;44011;52.218;1.480;2022-11-04T01:55:09;3.78;;;2.78;;
58214;SDS011;44011;52.218;1.480;2022-11-04T01:58:40;4.55;;;2.92;;
58214;SDS011;44011;52.218;1.480;2022-11-04T02:02:05;3.33;;;2.55;;
58214;SDS011;44011;52.218;1.480;2022-11-04T02:05:33;4.25;;;3.30;;
58214;SDS011;44011;52.218;1.480;2022-11-04T02:08:57;3.15;;;2.75;;
58214;SDS011;44011;52.218;1.480;2022-11-04T02:12:21;4.57;;;3.40;;
58214;SDS011;44011;52.218;1.480;2022-11-04T02:30:35;9.27;;;5.25;;
58214;SDS011;44011;52.218;1.480;2022-11-04T02:38:09;8.55;;;5.38;;
58214;SDS011;44011;52.218;1.480;2022-11-04T02:42:19;6.75;;;4.78;;
58214;SDS011;44011;52.218;1.480;2022-11-04T02:49:12;5.47;;;4.13;;
58214;SDS011;44011;52.218;1.480;2022-11-04T02:52:40;5.88;;;4.50;;
58214;SDS011;44011;52.218;1.480;2022-11-04T02:56:11;5.30;;;4.25;;
58214;SDS011;44011;52.218;1.480;2022-11-04T02:59:39;10.75;;;5.88;;
58214;SDS011;44011;52.218;1.480;2022-11-04T03:03:09;14.87;;;6.47;;
58214;SDS011;44011;52.218;1.480;2022-11-04T03:06:36;7.85;;;5.85;;
58214;SDS011;44011;52.218;1.480;2022-11-04T03:10:02;10.57;;;6.75;;
58214;SDS011;44011;52.218;1.480;2022-11-04T03:17:17;11.07;;;7.03;;
58214;SDS011;44011;52.218;1.480;2022-11-04T03:20:48;12.57;;;7.32;;
58214;SDS011;44011;52.218;1.480;2022-11-04T03:24:19;14.77;;;7.28;;
58214;SDS011;44011;52.218;1.480;2022-11-04T03:27:45;12.73;;;7.45;;
58214;SDS011;44011;52.218;1.480;2022-11-04T03:31:18;14.88;;;8.23;;
58214;SDS011;44011;52.218;1.480;2022-11-04T03:34:43;12.10;;;7.13;;
58214;SDS011;44011;52.218;1.480;2022-11-04T03:38:07;18.52;;;7.97;;
58214;SDS011;44011;52.218;1.480;2022-11-04T03:45:25;16.63;;;8.88;;
58214;SDS011;44011;52.218;1.480;2022-11-04T03:48:50;18.27;;;9.73;;
58214;SDS011;44011;52.218;1.480;2022-11-04T03:52:15;14.27;;;7.78;;
58214;SDS011;44011;52.218;1.480;2022-11-04T04:02:57;18.33;;;9.63;;
58214;SDS011;44011;52.218;1.480;2022-11-04T04:06:29;14.10;;;7.65;;
58214;SDS011;44011;52.218;1.480;2022-11-04T04:17:19;17.55;;;8.70;;
58214;SDS011;44011;52.218;1.480;2022-11-04T04:20:46;15.60;;;8.00;;
58214;SDS011;44011;52.218;1.480;2022-11-04T04:24:14;14.88;;;8.48;;
58214;SDS011;44011;52.218;1.480;2022-11-04T04:27:58;12.93;;;7.93;;
58214;SDS011;44011;52.218;1.480;2022-11-04T04:31:25;13.02;;;8.00;;
58214;SDS011;44011;52.218;1.480;2022-11-04T04:34:52;17.42;;;8.02;;
58214;SDS011;44011;52.218;1.480;2022-11-04T04:42:05;17.95;;;8.30;;
58214;SDS011;44011;52.218;1.480;2022-11-04T04:45:49;14.55;;;7.65;;
58214;SDS011;44011;52.218;1.480;2022-11-04T04:49:14;11.55;;;6.47;;
58214;SDS011;44011;52.218;1.480;2022-11-04T04:52:40;13.18;;;7.72;;
58214;SDS011;44011;52.218;1.480;2022-11-04T04:56:05;17.00;;;7.45;;
58214;SDS011;44011;52.218;1.480;2022-11-04T04:59:28;17.83;;;6.78;;
58214;SDS011;44011;52.218;1.480;2022-11-04T05:02:53;12.50;;;6.50;;
58214;SDS011;44011;52.218;1.480;2022-11-04T05:06:17;9.60;;;5.72;;
58214;SDS011;44011;52.218;1.480;2022-11-04T05:09:41;16.02;;;6.68;;
58214;SDS011;44011;52.218;1.480;2022-11-04T05:13:05;19.25;;;7.15;;
58214;SDS011;44011;52.218;1.480;2022-11-04T05:16:29;12.02;;;5.78;;
58214;SDS011;44011;52.218;1.480;2022-11-04T05:19:53;10.50;;;6.18;;
58214;SDS011;44011;52.218;1.480;2022-11-04T05:23:17;12.52;;;6.22;;
58214;SDS011;44011;52.218;1.480;2022-11-04T05:26:41;13.90;;;6.35;;
58214;SDS011;44011;52.218;1.480;2022-11-04T05:30:05;15.35;;;6.32;;
58214;SDS011;44011;52.218;1.480;2022-11-04T05:33:29;8.35;;;5.30;;
58214;SDS011;44011;52.218;1.480;2022-11-04T05:36:53;12.48;;;6.35;;
58214;SDS011;44011;52.218;1.480;2022-11-04T05:40:19;8.93;;;4.82;;
58214;SDS011;44011;52.218;1.480;2022-11-04T05:43:55;10.43;;;6.05;;
58214;SDS011;44011;52.218;1.480;2022-11-04T05:47:20;10.65;;;5.35;;
58214;SDS011;44011;52.218;1.480;2022-11-04T05:50:44;7.55;;;5.25;;
58214;SDS011;44011;52.218;1.480;2022-11-04T05:54:08;8.93;;;5.00;;
58214;SDS011;44011;52.218;1.480;2022-11-04T05:57:32;12.77;;;4.50;;
58214;SDS011;44011;52.218;1.480;2022-11-04T06:04:39;10.68;;;5.00;;
58214;SDS011;44011;52.218;1.480;2022-11-04T06:08:03;9.60;;;4.53;;
58214;SDS011;44011;52.218;1.480;2022-11-04T06:11:28;9.10;;;4.65;;
58214;SDS011;44011;52.218;1.480;2022-11-04T06:14:52;8.73;;;4.13;;
58214;SDS011;44011;52.218;1.480;2022-11-04T06:18:16;11.98;;;3.85;;
58214;SDS011;44011;52.218;1.480;2022-11-04T06:21:40;6.65;;;3.55;;
58214;SDS011;44011;52.218;1.480;2022-11-04T06:25:04;8.45;;;3.97;;
58214;SDS011;44011;52.218;1.480;2022-11-04T06:28:29;11.48;;;3.47;;
58214;SDS011;44011;52.218;1.480;2022-11-04T06:31:53;10.05;;;4.07;;
58214;SDS011;44011;52.218;1.480;2022-11-04T06:35:17;4.93;;;3.30;;
58214;SDS011;44011;52.218;1.480;2022-11-04T06:38:41;5.18;;;3.80;;
58214;SDS011;44011;52.218;1.480;2022-11-04T06:42:05;7.05;;;3.83;;
58214;SDS011;44011;52.218;1.480;2022-11-04T06:45:29;8.10;;;3.40;;
58214;SDS011;44011;52.218;1.480;2022-11-04T06:48:56;13.25;;;4.45;;
58214;SDS011;44011;52.218;1.480;2022-11-04T06:52:20;4.88;;;3.03;;
58214;SDS011;44011;52.218;1.480;2022-11-04T06:55:44;10.88;;;3.88;;
58214;SDS011;44011;52.218;1.480;2022-11-04T06:59:11;8.82;;;3.60;;
58214;SDS011;44011;52.218;1.480;2022-11-04T07:02:38;6.47;;;3.80;;
58214;SDS011;44011;52.218;1.480;2022-11-04T07:06:06;6.28;;;3.50;;
58214;SDS011;44011;52.218;1.480;2022-11-04T07:12:54;5.75;;;3.58;;
58214;SDS011;44011;52.218;1.480;2022-11-04T07:16:18;7.80;;;3.72;;
58214;SDS011;44011;52.218;1.480;2022-11-04T07:19:42;6.75;;;4.60;;
58214;SDS011;44011;52.218;1.480;2022-11-04T07:23:06;7.32;;;3.67;;
58214;SDS011;44011;52.218;1.480;2022-11-04T07:26:31;9.20;;;4.53;;
58214;SDS011;44011;52.218;1.480;2022-11-04T07:29:55;8.70;;;4.20;;
58214;SDS011;44011;52.218;1.480;2022-11-04T07:33:23;7.63;;;3.80;;
58214;SDS011;44011;52.218;1.480;2022-11-04T07:36:47;8.35;;;3.47;;
58214;SDS011;44011;52.218;1.480;2022-11-04T07:40:11;6.70;;;3.72;;
58214;SDS011;44011;52.218;1.480;2022-11-04T07:43:35;9.70;;;3.25;;
58214;SDS011;44011;52.218;1.480;2022-11-04T07:47:00;7.38;;;3.90;;
58214;SDS011;44011;52.218;1.480;2022-11-04T07:50:24;9.85;;;3.63;;
58214;SDS011;44011;52.218;1.480;2022-11-04T07:53:48;9.90;;;4.10;;
58214;SDS011;44011;52.218;1.480;2022-11-04T07:57:12;10.68;;;4.47;;
58214;SDS011;44011;52.218;1.480;2022-11-04T08:00:36;5.20;;;3.20;;
58214;SDS011;44011;52.218;1.480;2022-11-04T08:04:01;8.77;;;3.33;;
58214;SDS011;44011;52.218;1.480;2022-11-04T08:07:25;5.72;;;3.08;;
58214;SDS011;44011;52.218;1.480;2022-11-04T08:11:00;4.93;;;3.05;;
58214;SDS011;44011;52.218;1.480;2022-11-04T08:14:24;5.10;;;2.60;;
58214;SDS011;44011;52.218;1.480;2022-11-04T08:17:48;4.72;;;2.97;;
58214;SDS011;44011;52.218;1.480;2022-11-04T08:21:13;5.35;;;2.85;;
58214;SDS011;44011;52.218;1.480;2022-11-04T08:24:37;3.78;;;2.63;;
58214;SDS011;44011;52.218;1.480;2022-11-04T08:28:01;6.13;;;2.50;;
58214;SDS011;44011;52.218;1.480;2022-11-04T08:31:27;4.90;;;2.83;;
58214;SDS011;44011;52.218;1.480;2022-11-04T08:34:52;2.97;;;2.20;;
58214;SDS011;44011;52.218;1.480;2022-11-04T08:38:16;3.50;;;2.75;;
58214;SDS011;44011;52.218;1.480;2022-11-04T08:41:40;6.68;;;2.95;;
58214;SDS011;44011;52.218;1.480;2022-11-04T08:45:05;8.65;;;3.22;;
58214;SDS011;44011;52.218;1.480;2022-11-04T08:48:29;6.25;;;2.65;;
58214;SDS011;44011;52.218;1.480;2022-11-04T08:51:53;8.52;;;3.17;;
58214;SDS011;44011;52.218;1.480;2022-11-04T08:55:18;4.65;;;2.70;;
58214;SDS011;44011;52.218;1.480;2022-11-04T08:58:53;16.30;;;3.88;;
58214;SDS011;44011;52.218;1.480;2022-11-04T09:02:17;5.45;;;2.92;;
58214;SDS011;44011;52.218;1.480;2022-11-04T09:05:41;7.43;;;3.63;;
58214;SDS011;44011;52.218;1.480;2022-11-04T09:09:07;7.68;;;3.05;;
58214;SDS011;44011;52.218;1.480;2022-11-04T09:12:31;8.35;;;4.03;;
58214;SDS011;44011;52.218;1.480;2022-11-04T09:15:55;8.30;;;3.10;;
58214;SDS011;44011;52.218;1.480;2022-11-04T09:19:19;10.50;;;3.72;;
58214;SDS011;44011;52.218;1.480;2022-11-04T09:22:44;6.70;;;3.28;;
58214;SDS011;44011;52.218;1.480;2022-11-04T09:26:09;7.97;;;3.33;;
58214;SDS011;44011;52.218;1.480;2022-11-04T09:29:34;12.18;;;3.60;;
58214;SDS011;44011;52.218;1.480;2022-11-04T09:32:58;10.07;;;4.80;;
58214;SDS011;44011;52.218;1.480;2022-11-04T09:36:22;16.63;;;3.97;;
58214;SDS011;44011;52.218;1.480;2022-11-04T09:39:46;11.82;;;3.97;;
58214;SDS011;44011;52.218;1.480;2022-11-04T09:46:42;14.57;;;4.03;;
58214;SDS011;44011;52.218;1.480;2022-11-04T09:50:07;10.95;;;4.65;;
58214;SDS011;44011;52.218;1.480;2022-11-04T09:53:36;8.77;;;4.22;;
58214;SDS011;44011;52.218;1.480;2022-11-04T09:57:08;12.98;;;4.65;;
58214;SDS011;44011;52.218;1.480;2022-11-04T10:00:36;13.07;;;4.30;;
58214;SDS011;44011;52.218;1.480;2022-11-04T10:04:28;13.60;;;5.00;;
58214;SDS011;44011;52.218;1.480;2022-11-04T10:12:11;11.27;;;4.15;;
58214;SDS011;44011;52.218;1.480;2022-11-04T10:26:45;10.40;;;4.38;;
58214;SDS011;44011;52.218;1.480;2022-11-04T10:30:17;14.25;;;4.28;;
58214;SDS011;44011;52.218;1.480;2022-11-04T10:33:44;6.45;;;3.65;;
58214;SDS011;44011;52.218;1.480;2022-11-04T10:37:30;9.88;;;3.20;;
58214;SDS011;44011;52.218;1.480;2022-11-04T10:40:54;5.85;;;3.40;;
58214;SDS011;44011;52.218;1.480;2022-11-04T10:47:49;14.10;;;4.05;;
58214;SDS011;44011;52.218;1.480;2022-11-04T10:51:30;7.35;;;3.30;;
58214;SDS011;44011;52.218;1.480;2022-11-04T10:54:57;4.70;;;3.38;;
58214;SDS011;44011;52.218;1.480;2022-11-04T10:58:44;7.05;;;3.47;;
58214;SDS011;44011;52.218;1.480;2022-11-04T11:02:16;9.95;;;4.00;;
58214;SDS011;44011;52.218;1.480;2022-11-04T11:05:47;12.02;;;3.83;;
58214;SDS011;44011;52.218;1.480;2022-11-04T11:09:12;11.13;;;4.22;;
58214;SDS011;44011;52.218;1.480;2022-11-04T11:12:51;8.65;;;3.28;;
58214;SDS011;44011;52.218;1.480;2022-11-04T11:16:19;8.13;;;3.80;;
58214;SDS011;44011;52.218;1.480;2022-11-04T11:19:57;9.68;;;3.55;;
58214;SDS011;44011;52.218;1.480;2022-11-04T11:23:48;6.82;;;3.53;;
58214;SDS011;44011;52.218;1.480;2022-11-04T11:27:14;5.13;;;3.20;;
58214;SDS011;44011;52.218;1.480;2022-11-04T11:34:17;9.50;;;3.38;;
58214;SDS011;44011;52.218;1.480;2022-11-04T11:37:44;14.45;;;3.58;;
58214;SDS011;44011;52.218;1.480;2022-11-04T11:41:18;12.52;;;4.40;;
58214;SDS011;44011;52.218;1.480;2022-11-04T11:44:52;10.45;;;3.85;;
58214;SDS011;44011;52.218;1.480;2022-11-04T11:48:29;13.95;;;4.72;;
58214;SDS011;44011;52.218;1.480;2022-11-04T11:55:47;6.65;;;4.68;;
58214;SDS011;44011;52.218;1.480;2022-11-04T12:03:01;11.20;;;5.60;;
58214;SDS011;44011;52.218;1.480;2022-11-04T12:06:30;14.85;;;5.47;;
58214;SDS011;44011;52.218;1.480;2022-11-04T12:13:43;9.88;;;5.30;;
58214;SDS011;44011;52.218;1.480;2022-11-04T12:21:13;7.30;;;4.03;;
58214;SDS011;44011;52.218;1.480;2022-11-04T12:28:14;8.68;;;4.43;;
58214;SDS011;44011;52.218;1.480;2022-11-04T12:45:43;7.50;;;2.83;;
58214;SDS011;44011;52.218;1.480;2022-11-04T12:49:34;8.85;;;3.10;;
58214;SDS011;44011;52.218;1.480;2022-11-04T12:56:34;8.45;;;2.75;;
58214;SDS011;44011;52.218;1.480;2022-11-04T13:00:11;4.90;;;2.25;;
58214;SDS011;44011;52.218;1.480;2022-11-04T13:03:51;4.47;;;2.47;;
58214;SDS011;44011;52.218;1.480;2022-11-04T13:07:44;7.57;;;3.00;;
58214;SDS011;44011;52.218;1.480;2022-11-04T13:11:21;15.43;;;3.20;;
58214;SDS011;44011;52.218;1.480;2022-11-04T13:15:00;9.30;;;2.23;;
58214;SDS011;44011;52.218;1.480;2022-11-04T13:18:27;10.75;;;2.88;;
58214;SDS011;44011;52.218;1.480;2022-11-04T13:22:04;6.85;;;2.13;;
58214;SDS011;44011;52.218;1.480;2022-11-04T13:29:09;3.42;;;2.45;;
58214;SDS011;44011;52.218;1.480;2022-11-04T13:36:43;5.25;;;3.17;;
58214;SDS011;44011;52.218;1.480;2022-11-04T13:40:20;2.63;;;1.60;;
58214;SDS011;44011;52.218;1.480;2022-11-04T13:47:18;6.85;;;1.98;;
58214;SDS011;44011;52.218;1.480;2022-11-04T13:50:43;3.70;;;1.70;;
58214;SDS011;44011;52.218;1.480;2022-11-04T13:54:51;4.68;;;1.90;;
58214;SDS011;44011;52.218;1.480;2022-11-04T13:57:56;7.53;;;3.05;;
58214;SDS011;44011;52.218;1.480;2022-11-04T14:04:50;8.40;;;2.08;;
58214;SDS011;44011;52.218;1.480;2022-11-04T14:08:23;3.90;;;1.63;;
58214;SDS011;44011;52.218;1.480;2022-11-04T14:16:02;7.20;;;2.42;;
58214;SDS011;44011;52.218;1.480;2022-11-04T14:19:47;4.03;;;1.80;;
58214;SDS011;44011;52.218;1.480;2022-11-04T14:23:25;6.13;;;1.70;;
58214;SDS011;44011;52.218;1.480;2022-11-04T14:26:50;10.23;;;2.08;;
58214;SDS011;44011;52.218;1.480;2022-11-04T14:34:29;6.68;;;2.15;;
58214;SDS011;44011;52.218;1.480;2022-11-04T14:45:08;4.13;;;1.80;;
58214;SDS011;44011;52.218;1.480;2022-11-04T14:48:32;3.38;;;1.80;;
58214;SDS011;44011;52.218;1.480;2022-11-04T14:51:57;9.85;;;2.13;;
58214;SDS011;44011;52.218;1.480;2022-11-04T14:55:29;5.30;;;1.98;;
58214;SDS011;44011;52.218;1.480;2022-11-04T14:58:55;7.93;;;2.10;;
58214;SDS011;44011;52.218;1.480;2022-11-04T15:02:28;3.90;;;2.08;;
58214;SDS011;44011;52.218;1.480;2022-11-04T15:05:55;3.83;;;1.77;;
58214;SDS011;44011;52.218;1.480;2022-11-04T15:09:26;7.18;;;1.98;;
58214;SDS011;44011;52.218;1.480;2022-11-04T15:12:52;4.65;;;1.83;;
58214;SDS011;44011;52.218;1.480;2022-11-04T15:16:26;3.78;;;1.75;;
58214;SDS011;44011;52.218;1.480;2022-11-04T15:19:54;3.70;;;1.88;;
58214;SDS011;44011;52.218;1.480;2022-11-04T15:27:01;3.50;;;1.60;;
58214;SDS011;44011;52.218;1.480;2022-11-04T15:30:27;6.07;;;2.03;;
58214;SDS011;44011;52.218;1.480;2022-11-04T15:37:18;3.88;;;1.83;;
58214;SDS011;44011;52.218;1.480;2022-11-04T15:40:42;6.90;;;1.95;;
58214;SDS011;44011;52.218;1.480;2022-11-04T15:44:27;6.78;;;2.05;;
58214;SDS011;44011;52.218;1.480;2022-11-04T15:51:43;9.50;;;2.35;;
58214;SDS011;44011;52.218;1.480;2022-11-04T15:55:23;8.43;;;1.92;;
58214;SDS011;44011;52.218;1.480;2022-11-04T15:59:06;7.15;;;1.88;;
58214;SDS011;44011;52.218;1.480;2022-11-04T16:02:50;5.07;;;2.03;;
58214;SDS011;44011;52.218;1.480;2022-11-04T16:06:16;6.40;;;2.30;;
58214;SDS011;44011;52.218;1.480;2022-11-04T16:09:46;7.53;;;2.15;;
58214;SDS011;44011;52.218;1.480;2022-11-04T16:16:38;5.25;;;2.17;;
58214;SDS011;44011;52.218;1.480;2022-11-04T16:20:15;6.82;;;1.90;;
58214;SDS011;44011;52.218;1.480;2022-11-04T16:23:50;5.18;;;2.10;;
58214;SDS011;44011;52.218;1.480;2022-11-04T16:27:17;8.43;;;2.33;;
58214;SDS011;44011;52.218;1.480;2022-11-04T16:31:04;3.85;;;2.45;;
58214;SDS011;44011;52.218;1.480;2022-11-04T16:34:32;7.25;;;2.30;;
58214;SDS011;44011;52.218;1.480;2022-11-04T16:37:58;6.45;;;2.70;;
58214;SDS011;44011;52.218;1.480;2022-11-04T16:41:24;17.08;;;3.90;;
58214;SDS011;44011;52.218;1.480;2022-11-04T16:44:50;9.55;;;2.58;;
58214;SDS011;44011;52.218;1.480;2022-11-04T16:48:15;7.18;;;2.20;;
58214;SDS011;44011;52.218;1.480;2022-11-04T16:51:40;6.93;;;2.55;;
58214;SDS011;44011;52.218;1.480;2022-11-04T16:55:04;5.97;;;2.20;;
58214;SDS011;44011;52.218;1.480;2022-11-04T16:58:29;10.70;;;3.95;;
58214;SDS011;44011;52.218;1.480;2022-11-04T17:01:53;8.02;;;3.08;;
58214;SDS011;44011;52.218;1.480;2022-11-04T17:05:17;7.75;;;2.60;;
58214;SDS011;44011;52.218;1.480;2022-11-04T17:08:41;6.00;;;2.65;;
58214;SDS011;44011;52.218;1.480;2022-11-04T17:12:05;8.48;;;2.83;;
58214;SDS011;44011;52.218;1.480;2022-11-04T17:15:29;4.25;;;2.90;;
58214;SDS011;44011;52.218;1.480;2022-11-04T17:18:54;8.68;;;2.42;;
58214;SDS011;44011;52.218;1.480;2022-11-04T17:22:18;7.20;;;2.50;;
58214;SDS011;44011;52.218;1.480;2022-11-04T17:25:42;6.15;;;3.00;;
58214;SDS011;44011;52.218;1.480;2022-11-04T17:29:06;9.35;;;4.30;;
58214;SDS011;44011;52.218;1.480;2022-11-04T17:32:31;10.85;;;4.45;;
58214;SDS011;44011;52.218;1.480;2022-11-04T17:35:55;13.45;;;7.43;;
58214;SDS011;44011;52.218;1.480;2022-11-04T17:39:19;16.88;;;10.40;;
58214;SDS011;44011;52.218;1.480;2022-11-04T17:42:43;41.40;;;24.27;;
58214;SDS011;44011;52.218;1.480;2022-11-04T17:46:29;48.78;;;26.35;;
58214;SDS011;44011;52.218;1.480;2022-11-04T17:49:53;46.63;;;26.38;;
58214;SDS011;44011;52.218;1.480;2022-11-04T17:53:17;37.33;;;19.73;;
58214;SDS011;44011;52.218;1.480;2022-11-04T17:56:41;36.47;;;18.73;;
58214;SDS011;44011;52.218;1.480;2022-11-04T18:00:05;18.15;;;10.35;;
58214;SDS011;44011;52.218;1.480;2022-11-04T18:03:30;14.70;;;7.20;;
58214;SDS011;44011;52.218;1.480;2022-11-04T18:06:54;19.02;;;8.50;;
58214;SDS011;44011;52.218;1.480;2022-11-04T18:10:20;10.00;;;5.65;;
58214;SDS011;44011;52.218;1.480;2022-11-04T18:14:03;13.75;;;5.53;;
58214;SDS011;44011;52.218;1.480;2022-11-04T18:17:36;9.43;;;4.00;;
58214;SDS011;44011;52.218;1.480;2022-11-04T18:21:00;14.93;;;5.20;;
58214;SDS011;44011;52.218;1.480;2022-11-04T18:24:24;9.95;;;6.65;;
58214;SDS011;44011;52.218;1.480;2022-11-04T18:27:48;22.05;;;12.63;;
58214;SDS011;44011;52.218;1.480;2022-11-04T18:31:34;23.88;;;15.57;;
58214;SDS011;44011;52.218;1.480;2022-11-04T18:34:57;40.83;;;24.73;;
58214;SDS011;44011;52.218;1.480;2022-11-04T18:38:21;20.48;;;10.40;;
58214;SDS011;44011;52.218;1.480;2022-11-04T18:41:45;25.50;;;13.25;;
58214;SDS011;44011;52.218;1.480;2022-11-04T18:45:09;54.80;;;26.30;;
58214;SDS011;44011;52.218;1.480;2022-11-04T18:48:37;33.70;;;17.13;;
58214;SDS011;44011;52.218;1.480;2022-11-04T18:52:01;29.25;;;17.45;;
58214;SDS011;44011;52.218;1.480;2022-11-04T18:55:25;32.17;;;21.17;;
58214;SDS011;44011;52.218;1.480;2022-11-04T18:58:49;33.38;;;23.58;;
58214;SDS011;44011;52.218;1.480;2022-11-04T19:02:18;20.33;;;13.43;;
58214;SDS011;44011;52.218;1.480;2022-11-04T19:05:42;15.40;;;10.60;;
58214;SDS011;44011;52.218;1.480;2022-11-04T19:09:08;16.55;;;10.55;;
58214;SDS011;44011;52.218;1.480;2022-11-04T19:12:32;16.63;;;10.48;;
58214;SDS011;44011;52.218;1.480;2022-11-04T19:16:02;34.55;;;14.98;;
58214;SDS011;44011;52.218;1.480;2022-11-04T19:19:26;31.23;;;16.75;;
58214;SDS011;44011;52.218;1.480;2022-11-04T19:22:50;46.00;;;22.13;;
58214;SDS011;44011;52.218;1.480;2022-11-04T19:29:38;51.17;;;22.65;;
58214;SDS011;44011;52.218;1.480;2022-11-04T19:33:02;37.33;;;17.98;;
58214;SDS011;44011;52.218;1.480;2022-11-04T19:36:31;35.88;;;15.18;;
58214;SDS011;44011;52.218;1.480;2022-11-04T19:39:57;26.42;;;13.30;;
58214;SDS011;44011;52.218;1.480;2022-11-04T19:43:22;29.63;;;14.20;;
58214;SDS011;44011;52.218;1.480;2022-11-04T19:46:47;18.23;;;10.90;;
58214;SDS011;44011;52.218;1.480;2022-11-04T19:50:11;20.83;;;10.20;;
58214;SDS011;44011;52.218;1.480;2022-11-04T19:53:37;31.13;;;14.90;;
58214;SDS011;44011;52.218;1.480;2022-11-04T19:57:01;21.67;;;10.55;;
58214;SDS011;44011;52.218;1.480;2022-11-04T20:00:26;13.80;;;7.75;;
58214;SDS011;44011;52.218;1.480;2022-11-04T20:03:50;13.85;;;7.40;;
58214;SDS011;44011;52.218;1.480;2022-11-04T20:07:15;15.98;;;8.35;;
58214;SDS011;44011;52.218;1.480;2022-11-04T20:10:41;13.30;;;7.35;;
58214;SDS011;44011;52.218;1.480;2022-11-04T20:14:24;9.30;;;6.65;;
58214;SDS011;44011;52.218;1.480;2022-11-04T20:17:50;11.40;;;7.25;;
58214;SDS011;44011;52.218;1.480;2022-11-04T20:21:21;10.93;;;6.25;;
58214;SDS011;44011;52.218;1.480;2022-11-04T20:24:45;11.70;;;6.20;;
58214;SDS011;44011;52.218;1.480;2022-11-04T20:28:09;9.50;;;5.55;;
58214;SDS011;44011;52.218;1.480;2022-11-04T20:31:35;7.90;;;5.85;;
58214;SDS011;44011;52.218;1.480;2022-11-04T20:34:59;13.88;;;5.78;;
58214;SDS011;44011;52.218;1.480;2022-11-04T20:38:23;7.28;;;5.93;;
58214;SDS011;44011;52.218;1.480;2022-11-04T20:41:47;13.95;;;6.43;;
58214;SDS011;44011;52.218;1.480;2022-11-04T20:45:14;12.05;;;6.90;;
58214;SDS011;44011;52.218;1.480;2022-11-04T20:48:43;9.70;;;6.90;;
58214;SDS011;44011;52.218;1.480;2022-11-04T20:52:07;10.95;;;6.78;;
58214;SDS011;44011;52.218;1.480;2022-11-04T20:55:31;11.70;;;6.72;;
58214;SDS011;44011;52.218;1.480;2022-11-04T20:58:57;12.20;;;6.95;;
58214;SDS011;44011;52.218;1.480;2022-11-04T21:02:21;15.90;;;7.00;;
58214;SDS011;44011;52.218;1.480;2022-11-04T21:05:45;13.38;;;7.40;;
58214;SDS011;44011;52.218;1.480;2022-11-04T21:09:10;13.50;;;6.90;;
58214;SDS011;44011;52.218;1.480;2022-11-04T21:12:35;12.48;;;7.82;;
58214;SDS011;44011;52.218;1.480;2022-11-04T21:15:59;15.07;;;8.98;;
58214;SDS011;44011;52.218;1.480;2022-11-04T21:19:24;22.88;;;10.65;;
58214;SDS011;44011;52.218;1.480;2022-11-04T21:22:48;18.90;;;10.10;;
58214;SDS011;44011;52.218;1.480;2022-11-04T21:26:14;16.52;;;8.48;;
58214;SDS011;44011;52.218;1.480;2022-11-04T21:29:38;16.70;;;9.07;;
58214;SDS011;44011;52.218;1.480;2022-11-04T21:33:03;21.67;;;10.40;;
58214;SDS011;44011;52.218;1.480;2022-11-04T21:36:28;21.38;;;10.00;;
58214;SDS011;44011;52.218;1.480;2022-11-04T21:39:52;18.20;;;9.70;;
58214;SDS011;44011;52.218;1.480;2022-11-04T21:43:16;17.27;;;10.10;;
58214;SDS011;44011;52.218;1.480;2022-11-04T21:46:40;15.98;;;9.23;;
58214;SDS011;44011;52.218;1.480;2022-11-04T21:50:05;13.95;;;8.57;;
58214;SDS011;44011;52.218;1.480;2022-11-04T21:53:36;54.85;;;20.38;;
58214;SDS011;44011;52.218;1.480;2022-11-04T21:57:00;58.58;;;24.00;;
58214;SDS011;44011;52.218;1.480;2022-11-04T22:00:24;27.05;;;17.10;;
58214;SDS011;44011;52.218;1.480;2022-11-04T22:03:50;14.82;;;9.30;;
58214;SDS011;44011;52.218;1.480;2022-11-04T22:07:15;17.92;;;10.50;;
58214;SDS011;44011;52.218;1.480;2022-11-04T22:10:42;20.98;;;9.95;;
58214;SDS011;44011;52.218;1.480;2022-11-04T22:14:06;18.95;;;9.68;;
58214;SDS011;44011;52.218;1.480;2022-11-04T22:17:31;15.93;;;8.00;;
58214;SDS011;44011;52.218;1.480;2022-11-04T22:20:56;12.10;;;6.97;;
58214;SDS011;44011;52.218;1.480;2022-11-04T22:24:23;10.43;;;6.57;;
58214;SDS011;44011;52.218;1.480;2022-11-04T22:27:47;19.85;;;6.68;;
58214;SDS011;44011;52.218;1.480;2022-11-04T22:31:15;9.38;;;6.15;;
58214;SDS011;44011;52.218;1.480;2022-11-04T22:34:40;11.38;;;6.63;;
58214;SDS011;44011;52.218;1.480;2022-11-04T22:38:04;11.73;;;6.00;;
58214;SDS011;44011;52.218;1.480;2022-11-04T22:41:30;9.73;;;6.10;;
58214;SDS011;44011;52.218;1.480;2022-11-04T22:44:54;11.13;;;5.43;;
58214;SDS011;44011;52.218;1.480;2022-11-04T22:48:19;11.07;;;6.53;;
58214;SDS011;44011;52.218;1.480;2022-11-04T22:51:43;17.63;;;7.43;;
58214;SDS011;44011;52.218;1.480;2022-11-04T22:55:08;11.98;;;5.75;;
58214;SDS011;44011;52.218;1.480;2022-11-04T22:58:32;9.05;;;6.40;;
58214;SDS011;44011;52.218;1.480;2022-11-04T23:01:56;16.90;;;7.30;;
58214;SDS011;44011;52.218;1.480;2022-11-04T23:05:21;8.95;;;7.25;;
58214;SDS011;44011;52.218;1.480;2022-11-04T23:08:45;9.50;;;6.45;;
58214;SDS011;44011;52.218;1.480;2022-11-04T23:12:28;13.38;;;7.50;;
58214;SDS011;44011;52.218;1.480;2022-11-04T23:16:11;12.65;;;7.35;;
58214;SDS011;44011;52.218;1.480;2022-11-04T23:20:00;11.00;;;7.30;;
58214;SDS011;44011;52.218;1.480;2022-11-04T23:23:43;12.32;;;6.95;;
58214;SDS011;44011;52.218;1.480;2022-11-04T23:27:25;13.07;;;7.75;;
58214;SDS011;44011;52.218;1.480;2022-11-04T23:31:22;10.07;;;7.05;;